Time;durP1;ratioP1;P1;durP2;ratioP2;P2;SDS_P1;SDS_P2;PMS_P1;PMS_P2;Temp;Humidity;BMP_temperature;BMP_pressure;BME280_temperature;BME280_humidity;BME280_pressure;Samples;Min_cycle;Max_cycle;Signal;HPM_P1;HPM_P2
2023/01/29 00:01:51;;;;;;;8.37;7.67;;;;;;;1.27;70.38;95026.88;5122173;28;20260;-66
2023/01/29 00:04:18;;;;;;;8.85;8.05;;;;;;;1.27;70.45;95029.59;5103712;28;20202;-66
2023/01/29 00:06:45;;;;;;;9.20;8.40;;;;;;;1.31;70.31;95022.50;5122032;28;20187;-66
2023/01/29 00:09:13;;;;;;;9.15;8.35;;;;;;;1.29;70.10;95024.69;5103919;28;20253;-66
2023/01/29 00:11:40;;;;;;;8.13;7.43;;;;;;;1.35;70.24;95037.91;5103768;28;20264;-67
2023/01/29 00:14:07;;;;;;;7.30;6.70;;;;;;;1.34;69.84;95027.31;5121865;28;20265;-67
2023/01/29 00:16:34;;;;;;;7.72;7.13;;;;;;;1.27;70.17;95035.88;5121809;28;20627;-67
2023/01/29 00:19:01;;;;;;;8.40;7.70;;;;;;;1.28;70.20;95034.75;5121860;28;20256;-67
2023/01/29 00:21:29;;;;;;;8.25;7.57;;;;;;;1.28;69.72;95040.19;5121674;28;20203;-67
2023/01/29 00:23:57;;;;;;;7.97;7.28;;;;;;;1.27;70.42;95044.03;5119078;28;20188;-67
2023/01/29 00:26:25;;;;;;;7.60;7.00;;;;;;;1.25;70.58;95042.69;5118468;28;20245;-67
2023/01/29 00:28:51;;;;;;;7.28;6.75;;;;;;;1.22;70.21;95049.50;5100678;28;20187;-67
2023/01/29 00:31:20;;;;;;;7.60;7.00;;;;;;;1.21;70.13;95047.91;5118100;28;20199;-67
2023/01/29 00:33:47;;;;;;;7.95;7.35;;;;;;;1.26;70.43;95044.28;5100481;28;20195;-67
2023/01/29 00:36:16;;;;;;;7.82;7.22;;;;;;;1.25;69.92;95051.66;5118573;28;20188;-67
2023/01/29 00:38:43;;;;;;;7.80;7.20;;;;;;;1.21;70.37;95045.19;5100242;28;20195;-67
2023/01/29 00:46:41;;;;;;;7.75;7.05;;;;;;;1.19;69.75;95044.66;5100596;28;20192;-67
2023/01/29 00:49:08;;;;;;;8.35;7.65;;;;;;;1.20;70.48;95049.81;5100270;28;20200;-67
2023/01/29 00:51:35;;;;;;;7.63;7.03;;;;;;;1.20;71.21;95049.00;5083273;28;20272;-67
2023/01/29 00:54:03;;;;;;;8.07;7.40;;;;;;;1.15;70.51;95046.34;5118061;28;20191;-67
2023/01/29 00:56:30;;;;;;;8.40;7.70;;;;;;;1.17;70.51;95050.41;5100082;28;20228;-66
2023/01/29 00:58:58;;;;;;;7.85;7.25;;;;;;;1.17;70.86;95050.41;5117826;27;20188;-67
2023/01/29 01:04:06;;;;;;;8.45;7.75;;;;;;;1.22;70.85;95043.28;5116628;28;20206;-67
2023/01/29 01:06:33;;;;;;;8.00;7.40;;;;;;;1.23;70.73;95042.16;5099860;28;20542;-66
2023/01/29 01:11:44;;;;;;;7.77;7.17;;;;;;;1.13;70.83;95043.94;5099372;28;20211;-66
2023/01/29 01:14:12;;;;;;;7.82;7.22;;;;;;;1.16;71.41;95043.38;5099837;28;20607;-66
2023/01/29 01:16:39;;;;;;;8.10;7.50;;;;;;;1.21;71.25;95047.91;5099741;28;20191;-67
2023/01/29 01:19:06;;;;;;;7.40;6.80;;;;;;;1.14;70.95;95045.56;5117780;28;20256;-67
2023/01/29 01:21:32;;;;;;;7.30;6.70;;;;;;;1.10;71.06;95039.09;5117176;28;20188;-68
2023/01/29 01:23:59;;;;;;;7.75;7.15;;;;;;;1.08;71.52;95041.28;5099371;28;20625;-67
2023/01/29 01:26:26;;;;;;;7.80;7.20;;;;;;;1.12;71.29;95041.50;5099258;28;20647;-67
2023/01/29 01:28:53;;;;;;;8.63;7.93;;;;;;;1.14;71.43;95039.31;5099596;28;20244;-67
2023/01/29 01:31:22;;;;;;;8.25;7.53;;;;;;;1.16;71.56;95043.38;5116868;28;20211;-66
2023/01/29 01:33:50;;;;;;;7.93;7.32;;;;;;;1.18;71.43;95041.13;5117195;28;20184;-67
2023/01/29 01:36:17;;;;;;;7.60;7.00;;;;;;;1.17;71.87;95033.28;5117059;28;20188;-67
2023/01/29 01:38:44;;;;;;;7.93;7.22;;;;;;;1.17;71.46;95038.72;5116904;28;20191;-67
2023/01/29 01:41:12;;;;;;;8.20;7.50;;;;;;;1.17;71.01;95052.31;5117226;28;20199;-67
2023/01/29 01:43:50;;;;;;;7.80;7.20;;;;;;;1.22;71.50;95041.34;5099038;28;20270;-67
2023/01/29 01:46:17;;;;;;;7.47;6.97;;;;;;;1.19;71.27;95039.22;5098829;28;20623;-67
2023/01/29 01:48:48;;;;;;;7.43;6.82;;;;;;;1.18;71.13;95051.19;5099035;28;20176;-67
2023/01/29 01:51:15;;;;;;;7.38;6.78;;;;;;;1.18;71.45;95043.06;5116444;28;20215;-67
2023/01/29 01:53:45;;;;;;;7.15;6.65;;;;;;;1.13;71.72;95049.38;5098825;28;20204;-67
2023/01/29 01:56:14;;;;;;;7.03;6.45;;;;;;;1.08;71.84;95049.44;5098580;28;20260;-67
2023/01/29 01:58:44;;;;;;;7.70;7.10;;;;;;;1.03;72.04;95049.50;5098786;28;20195;-67
2023/01/29 02:01:11;;;;;;;7.78;7.10;;;;;;;0.96;72.22;95052.59;5098497;28;20234;-67
2023/01/29 02:09:34;;;;;;;7.00;6.50;;;;;;;0.99;72.93;95051.19;5116327;28;20209;-67
2023/01/29 02:12:01;;;;;;;7.13;6.55;;;;;;;1.00;73.39;95065.59;5098510;28;20265;-67
2023/01/29 02:14:28;;;;;;;7.10;6.50;;;;;;;1.03;72.57;95051.44;5098696;28;20204;-67
2023/01/29 02:16:55;;;;;;;6.80;6.30;;;;;;;1.07;72.60;95052.44;5098425;28;20188;-67
2023/01/29 02:19:27;;;;;;;7.20;6.70;;;;;;;1.05;72.81;95052.72;5098128;28;20207;-67
2023/01/29 02:22:29;;;;;;;7.13;6.53;;;;;;;1.05;73.10;95060.06;5098752;28;20195;-67
2023/01/29 02:25:24;;;;;;;7.00;6.50;;;;;;;1.07;73.05;95063.31;5087755;28;20215;-67
2023/01/29 02:28:16;;;;;;;6.93;6.43;;;;;;;1.05;72.63;95057.34;5106619;28;20207;-67
2023/01/29 02:30:47;;;;;;;7.18;6.68;;;;;;;1.06;72.97;95062.50;5098915;28;20240;-68
2023/01/29 02:33:21;;;;;;;7.35;6.85;;;;;;;1.09;73.02;95067.38;5116094;28;20187;-67
2023/01/29 02:35:56;;;;;;;7.40;6.80;;;;;;;1.05;73.05;95074.47;5098035;28;20304;-67
2023/01/29 02:38:30;;;;;;;7.43;6.82;;;;;;;1.04;72.99;95070.13;5115792;28;20222;-67
2023/01/29 02:41:00;;;;;;;7.45;6.85;;;;;;;1.03;73.38;95076.69;5115928;28;20242;-67
2023/01/29 02:43:34;;;;;;;7.22;6.72;;;;;;;1.02;73.51;95075.06;5098031;28;20216;-67
2023/01/29 02:46:04;;;;;;;7.50;6.90;;;;;;;1.02;73.65;95079.66;5116010;28;20191;-67
2023/01/29 02:48:39;;;;;;;7.18;6.57;;;;;;;1.02;73.45;95085.09;5115032;28;20180;-67
2023/01/29 02:51:09;;;;;;;6.75;6.25;;;;;;;1.04;73.89;95082.91;5115392;28;20211;-67
2023/01/29 02:53:39;;;;;;;7.03;6.53;;;;;;;1.07;73.66;95085.06;5115844;28;20192;-67
2023/01/29 02:56:10;;;;;;;6.90;6.40;;;;;;;1.05;73.71;95079.09;5097953;28;20226;-67
2023/01/29 02:58:42;;;;;;;7.00;6.50;;;;;;;1.03;73.50;95086.75;5098041;28;20227;-67
2023/01/29 03:01:12;;;;;;;6.85;6.35;;;;;;;1.04;73.52;95072.03;5116975;28;20229;-67
2023/01/29 03:03:41;;;;;;;6.73;6.23;;;;;;;1.03;73.31;95081.31;5118208;27;20206;-67
2023/01/29 03:06:17;;;;;;;7.07;6.57;;;;;;;1.01;73.89;95081.56;5136610;27;20179;-67
2023/01/29 03:08:49;;;;;;;7.10;6.53;;;;;;;0.99;73.77;95081.09;5136281;27;20179;-67
2023/01/29 03:11:16;;;;;;;7.35;6.75;;;;;;;0.98;74.24;95074.03;5136127;28;20308;-67
2023/01/29 03:13:48;;;;;;;6.40;5.90;;;;;;;1.00;73.67;95081.88;5118101;28;20190;-67
2023/01/29 03:16:19;;;;;;;7.43;6.83;;;;;;;1.04;74.24;95082.91;5135852;28;20182;-67
2023/01/29 03:18:51;;;;;;;6.60;6.10;;;;;;;1.02;73.79;95088.66;5136154;28;20191;-67
2023/01/29 03:32:28;;;;;;;6.07;5.68;;;;;;;1.03;73.93;95089.44;5117431;28;20219;-67
2023/01/29 03:34:58;;;;;;;5.70;5.30;;;;;;;1.04;73.53;95091.88;5118479;28;20203;-67
2023/01/29 03:37:31;;;;;;;6.25;5.85;;;;;;;1.00;73.41;95090.03;5118012;28;20206;-67
2023/01/29 03:39:58;;;;;;;5.97;5.57;;;;;;;0.99;73.28;95094.66;5118362;28;20199;-67
2023/01/29 03:42:29;;;;;;;5.70;5.30;;;;;;;1.02;72.85;95085.09;5117670;28;20206;-67
2023/01/29 03:45:07;;;;;;;5.80;5.40;;;;;;;1.02;72.54;95093.25;5134358;28;20487;-67
2023/01/29 03:47:41;;;;;;;5.53;5.13;;;;;;;1.01;72.41;95081.56;5135651;28;20223;-67
2023/01/29 03:50:13;;;;;;;5.47;5.07;;;;;;;1.03;72.52;95094.88;5135356;28;20607;-67
2023/01/29 03:52:44;;;;;;;5.30;4.90;;;;;;;1.01;72.75;95078.88;5135622;28;20675;-67
2023/01/29 03:55:14;;;;;;;5.50;5.10;;;;;;;1.00;72.62;95085.41;5135637;28;20182;-67
2023/01/29 03:57:44;;;;;;;5.63;5.22;;;;;;;1.02;72.40;95087.81;5117506;27;20199;-66
2023/01/29 04:00:16;;;;;;;5.30;4.90;;;;;;;1.03;72.47;95092.16;5108081;28;20227;-66
2023/01/29 04:02:48;;;;;;;5.88;5.47;;;;;;;1.02;72.79;95085.09;5118922;28;20176;-67
2023/01/29 04:05:18;;;;;;;5.30;4.90;;;;;;;1.03;72.32;95081.31;5100928;28;20199;-67
2023/01/29 04:07:45;;;;;;;5.50;5.10;;;;;;;1.03;72.81;95087.53;5100381;28;20202;-67
2023/01/29 04:10:15;;;;;;;4.75;4.45;;;;;;;1.02;72.40;95087.81;5100765;28;20226;-67
2023/01/29 04:12:46;;;;;;;5.18;4.78;;;;;;;1.05;72.59;95092.66;5118407;28;20302;-67
2023/01/29 04:15:16;;;;;;;4.80;4.50;;;;;;;1.02;72.90;95096.78;5118296;28;20192;-67
2023/01/29 04:17:43;;;;;;;4.57;4.28;;;;;;;1.01;72.84;95097.88;5118485;28;20278;-67
2023/01/29 04:20:11;;;;;;;5.10;4.70;;;;;;;1.02;73.14;95104.13;5100788;28;20196;-67
2023/01/29 04:22:40;;;;;;;5.47;5.10;;;;;;;0.99;73.35;95102.81;5118304;28;20323;-67
2023/01/29 04:25:14;;;;;;;5.50;5.03;;;;;;;0.98;73.06;95098.50;5118519;28;20592;-67
2023/01/29 04:27:46;;;;;;;5.47;5.07;;;;;;;0.95;72.98;95099.88;5100606;28;20199;-67
2023/01/29 04:30:32;;;;;;;4.93;4.63;;;;;;;0.93;72.92;95098.53;5118150;28;20635;-67
2023/01/29 04:33:09;;;;;;;5.28;4.88;;;;;;;0.94;73.73;95100.97;5099762;28;20619;-67
2023/01/29 04:35:44;;;;;;;4.80;4.50;;;;;;;0.93;73.40;95099.34;5100289;28;20210;-67
2023/01/29 04:38:12;;;;;;;5.03;4.73;;;;;;;0.90;73.48;95096.41;5100617;28;20195;-67
2023/01/29 04:40:47;;;;;;;4.80;4.50;;;;;;;0.86;73.71;95106.22;5118439;28;20192;-67
2023/01/29 04:43:17;;;;;;;5.07;4.68;;;;;;;0.86;73.27;95106.22;5118245;28;20195;-67
2023/01/29 04:45:50;;;;;;;5.25;4.85;;;;;;;0.87;73.33;95105.13;5118147;28;20199;-67
2023/01/29 04:48:21;;;;;;;5.35;4.95;;;;;;;0.86;73.51;95106.22;5100431;28;20203;-67
2023/01/29 04:50:54;;;;;;;5.05;4.70;;;;;;;0.87;73.78;95105.94;5118214;28;20259;-67
2023/01/29 04:53:25;;;;;;;4.88;4.57;;;;;;;0.86;73.34;95103.50;5117559;28;20207;-66
2023/01/29 04:55:54;;;;;;;5.10;4.78;;;;;;;0.86;73.21;95112.47;5117966;28;20179;-67
2023/01/29 04:58:26;;;;;;;5.05;4.65;;;;;;;0.86;73.28;95109.75;5100692;28;20257;-67
2023/01/29 05:00:54;;;;;;;4.72;4.43;;;;;;;0.86;73.39;95107.03;5117611;27;20241;-66
2023/01/29 05:03:25;;;;;;;5.15;4.75;;;;;;;0.89;73.41;95111.88;5138357;27;20241;-67
2023/01/29 05:05:54;;;;;;;4.95;4.55;;;;;;;0.87;73.17;95114.09;5120385;27;20232;-67
2023/01/29 05:08:22;;;;;;;4.85;4.45;;;;;;;0.85;73.76;95112.75;5138509;27;20198;-67
2023/01/29 05:10:50;;;;;;;6.10;5.60;;;;;;;0.85;73.64;95112.75;5137725;27;20180;-67
2023/01/29 05:13:19;;;;;;;6.47;6.03;;;;;;;0.85;73.52;95108.13;5138297;27;20233;-67
2023/01/29 05:15:50;;;;;;;5.22;4.93;;;;;;;0.88;73.56;95118.44;5119940;27;20637;-67
2023/01/29 05:18:18;;;;;;;4.80;4.40;;;;;;;0.88;73.67;95114.91;5137896;27;20236;-67
2023/01/29 05:20:47;;;;;;;4.65;4.25;;;;;;;0.89;73.54;95116.50;5120051;27;20202;-67
2023/01/29 05:23:16;;;;;;;4.85;4.55;;;;;;;0.89;73.21;95119.22;5120140;27;20203;-67
2023/01/29 05:25:43;;;;;;;4.00;3.80;;;;;;;0.88;73.49;95114.91;5119929;27;20199;-67
2023/01/29 05:28:15;;;;;;;4.88;4.57;;;;;;;0.85;73.57;95123.63;5137817;27;20218;-66
2023/01/29 05:30:42;;;;;;;4.90;4.57;;;;;;;0.87;73.98;95118.69;5119783;27;20282;-67
2023/01/29 05:33:13;;;;;;;4.80;4.50;;;;;;;0.86;73.46;95120.59;5137762;27;20214;-67
2023/01/29 05:35:41;;;;;;;4.93;4.63;;;;;;;0.86;74.19;95127.94;5119821;27;20293;-67
2023/01/29 05:38:08;;;;;;;5.50;5.10;;;;;;;0.85;73.64;95135.28;5137687;27;20228;-67
2023/01/29 05:40:35;;;;;;;4.60;4.30;;;;;;;0.85;73.78;95131.78;5137834;27;20183;-67
2023/01/29 05:43:01;;;;;;;4.95;4.65;;;;;;;0.85;73.55;95134.50;5137645;27;20183;-67
2023/01/29 05:45:28;;;;;;;4.85;4.45;;;;;;;0.85;73.76;95135.28;5137234;27;20218;-67
2023/01/29 05:47:56;;;;;;;4.83;4.43;;;;;;;0.91;73.96;95127.91;5137616;27;20610;-67
2023/01/29 05:50:23;;;;;;;4.57;4.28;;;;;;;1.02;74.41;95142.13;5119362;27;20195;-67
2023/01/29 05:52:56;;;;;;;4.63;4.32;;;;;;;1.04;73.52;95137.25;5118959;27;20219;-67
2023/01/29 05:55:23;;;;;;;4.80;4.40;;;;;;;0.98;73.15;95141.94;5137204;27;20188;-66
2023/01/29 05:57:49;;;;;;;4.70;4.40;;;;;;;0.94;73.25;95149.84;5137528;27;20195;-66
2023/01/29 06:00:17;;;;;;;5.15;4.80;;;;;;;0.94;73.31;95143.59;5136530;27;20597;-66
2023/01/29 06:02:44;;;;;;;5.10;4.70;;;;;;;0.93;73.34;95148.22;5136680;27;20255;-66
2023/01/29 06:05:11;;;;;;;4.97;4.57;;;;;;;0.91;73.94;95149.63;5136703;27;20195;-66
2023/01/29 06:07:38;;;;;;;4.82;4.53;;;;;;;0.84;73.33;95149.97;5119057;27;20252;-66
2023/01/29 06:10:07;;;;;;;5.45;5.05;;;;;;;0.88;74.01;95150.22;5102478;27;20207;-67
2023/01/29 06:12:34;;;;;;;5.60;5.10;;;;;;;0.88;74.31;95158.34;5118971;27;20211;-67
2023/01/29 06:15:01;;;;;;;5.32;5.00;;;;;;;0.85;73.84;95162.44;5119052;27;20251;-67
2023/01/29 06:17:27;;;;;;;6.07;5.68;;;;;;;0.82;74.00;95157.59;5119027;27;20199;-67
2023/01/29 06:19:54;;;;;;;5.70;5.30;;;;;;;0.80;74.14;95167.94;5136888;27;20236;-67
2023/01/29 06:22:21;;;;;;;5.75;5.35;;;;;;;0.82;74.95;95173.88;5135888;27;20191;-67
2023/01/29 06:24:47;;;;;;;6.13;5.63;;;;;;;0.86;75.22;95174.13;5136906;27;20187;-67
2023/01/29 06:27:16;;;;;;;5.93;5.53;;;;;;;0.83;74.75;95175.50;5136852;27;20184;-67
2023/01/29 06:29:42;;;;;;;5.82;5.43;;;;;;;0.86;74.83;95176.81;5136701;27;20202;-67
2023/01/29 06:32:09;;;;;;;5.72;5.22;;;;;;;0.88;74.54;95180.88;5118608;27;20218;-68
2023/01/29 06:34:36;;;;;;;5.60;5.20;;;;;;;0.89;74.91;95184.41;5118623;27;20191;-68
2023/01/29 06:37:02;;;;;;;5.88;5.38;;;;;;;0.90;74.90;95189.53;5136635;27;20560;-68
2023/01/29 06:39:29;;;;;;;6.05;5.53;;;;;;;0.91;74.79;95195.78;5118403;27;20188;-68
2023/01/29 06:41:56;;;;;;;5.97;5.47;;;;;;;0.93;74.62;95193.59;5136648;27;20187;-68
2023/01/29 06:44:24;;;;;;;5.63;5.22;;;;;;;0.91;74.47;95193.88;5118994;27;20206;-67
2023/01/29 06:46:51;;;;;;;6.10;5.47;;;;;;;0.85;75.36;95186.88;5136590;27;20183;-67
2023/01/29 06:49:18;;;;;;;6.10;5.60;;;;;;;0.87;75.15;95195.56;5136247;27;20186;-68
2023/01/29 06:51:45;;;;;;;6.55;5.85;;;;;;;0.92;75.46;95192.78;5136563;27;20187;-68
2023/01/29 06:54:12;;;;;;;6.28;5.78;;;;;;;1.00;74.89;95204.09;5136320;27;20215;-68
2023/01/29 06:56:39;;;;;;;6.35;5.30;;;;;;;0.98;74.27;95200.84;5136602;27;20318;-68
2023/01/29 06:59:06;;;;;;;6.05;5.63;;;;;;;1.02;74.76;95201.91;5118712;27;20183;-68
2023/01/29 07:01:35;;;;;;;6.82;6.32;;;;;;;1.05;74.34;95204.03;5118204;27;20198;-67
2023/01/29 07:04:02;;;;;;;6.32;5.82;;;;;;;1.08;74.85;95198.03;5135919;27;20179;-68
2023/01/29 07:06:29;;;;;;;7.97;7.28;;;;;;;1.09;74.89;95205.06;5118246;28;20196;-69
2023/01/29 07:08:56;;;;;;;8.00;7.40;;;;;;;1.03;74.56;95208.97;5118283;27;20570;-69
2023/01/29 07:11:23;;;;;;;7.97;7.30;;;;;;;1.00;74.75;95209.53;5135765;27;20179;-68
2023/01/29 07:13:49;;;;;;;7.60;7.00;;;;;;;1.02;74.30;95215.47;5136359;28;20230;-68
2023/01/29 07:16:16;;;;;;;7.50;6.90;;;;;;;1.05;73.97;95221.13;5136004;28;20194;-68
2023/01/29 07:18:44;;;;;;;7.32;6.82;;;;;;;1.06;74.33;95219.25;5135881;28;20626;-68
2023/01/29 07:21:11;;;;;;;8.25;7.55;;;;;;;1.10;74.53;95223.00;5136124;28;20190;-68
2023/01/29 07:23:38;;;;;;;9.02;8.32;;;;;;;1.09;73.90;95226.81;5135860;28;20209;-68
2023/01/29 07:26:05;;;;;;;7.85;7.25;;;;;;;1.10;74.20;95223.81;5117971;28;20187;-68
2023/01/29 07:28:36;;;;;;;7.93;7.32;;;;;;;1.06;74.36;95219.25;5135662;28;20259;-68
2023/01/29 07:31:03;;;;;;;8.18;7.55;;;;;;;1.05;74.53;95232.00;5136200;28;20183;-68
2023/01/29 07:33:30;;;;;;;7.97;7.38;;;;;;;1.10;74.44;95234.69;5119078;27;20267;-68
2023/01/29 07:35:58;;;;;;;7.43;6.88;;;;;;;1.12;74.33;95235.19;5139871;27;20606;-68
2023/01/29 07:38:25;;;;;;;7.80;7.25;;;;;;;1.14;73.83;95234.91;5122348;27;20187;-72
2023/01/29 07:40:52;;;;;;;8.18;7.57;;;;;;;1.16;74.81;95238.13;5122105;27;20190;-67
2023/01/29 07:43:19;;;;;;;7.13;6.63;;;;;;;1.16;74.12;95238.97;5122098;27;20202;-68
2023/01/29 07:45:45;;;;;;;7.30;6.70;;;;;;;1.15;73.92;95233.81;5121759;27;20578;-67
2023/01/29 07:48:13;;;;;;;7.53;6.93;;;;;;;1.13;73.87;95236.03;5139916;27;20195;-67
2023/01/29 07:50:40;;;;;;;7.95;7.32;;;;;;;1.16;73.94;95241.69;5139870;27;20251;-67
2023/01/29 07:53:13;;;;;;;7.80;7.20;;;;;;;1.16;74.01;95240.84;5121987;27;20214;-67
2023/01/29 07:55:39;;;;;;;7.28;6.75;;;;;;;1.19;74.85;95243.00;5139424;27;20206;-69
2023/01/29 07:58:06;;;;;;;6.63;6.13;;;;;;;1.25;74.43;95244.56;5121887;27;20210;-69
2023/01/29 08:00:33;;;;;;;6.83;6.30;;;;;;;1.27;73.25;95246.97;5124641;27;20250;-69
2023/01/29 08:03:04;;;;;;;6.82;6.32;;;;;;;1.26;73.66;95243.47;5118735;28;20203;-69
2023/01/29 08:05:31;;;;;;;7.07;6.57;;;;;;;1.27;73.48;95249.69;5101331;28;20257;-68
2023/01/29 08:07:57;;;;;;;6.68;6.18;;;;;;;1.23;73.33;95249.47;5118972;28;20253;-68
2023/01/29 08:10:25;;;;;;;7.15;6.65;;;;;;;1.27;73.55;95252.41;5119032;28;20271;-68
2023/01/29 08:12:56;;;;;;;8.77;7.75;;;;;;;1.28;73.29;95252.16;5118496;28;20227;-68
2023/01/29 08:15:23;;;;;;;8.30;7.63;;;;;;;1.28;73.63;95246.72;5118578;28;20219;-68
2023/01/29 08:17:50;;;;;;;8.82;8.10;;;;;;;1.32;73.24;95258.63;5118473;28;20195;-69
2023/01/29 08:20:18;;;;;;;8.00;7.40;;;;;;;1.33;72.46;95259.41;5101371;28;20593;-69
2023/01/29 08:22:45;;;;;;;8.43;7.72;;;;;;;1.34;72.89;95244.72;5118393;28;20192;-68
2023/01/29 08:25:12;;;;;;;8.80;8.15;;;;;;;1.28;72.83;95249.44;5100503;28;20269;-69
2023/01/29 08:27:40;;;;;;;7.70;7.10;;;;;;;1.29;72.99;95264.63;5100522;28;20199;-69
2023/01/29 08:30:08;;;;;;;8.85;8.15;;;;;;;1.33;72.85;95264.84;5100473;28;20206;-69
2023/01/29 08:32:35;;;;;;;9.13;8.43;;;;;;;1.33;72.50;95262.13;5118314;28;20180;-69
2023/01/29 08:35:02;;;;;;;9.23;8.52;;;;;;;1.33;72.80;95265.66;5118144;28;20179;-68
2023/01/29 08:37:29;;;;;;;8.38;7.78;;;;;;;1.34;72.67;95263.75;5100174;28;20200;-69
2023/01/29 08:39:55;;;;;;;8.57;7.90;;;;;;;1.35;72.12;95268.09;5100690;28;20248;-69
2023/01/29 08:42:22;;;;;;;7.15;6.63;;;;;;;1.34;72.18;95272.72;5100905;28;20249;-68
2023/01/29 08:44:50;;;;;;;7.50;7.00;;;;;;;1.40;72.63;95268.03;5117057;28;20207;-68
2023/01/29 08:47:17;;;;;;;7.18;6.68;;;;;;;1.39;72.50;95269.13;5118251;28;20188;-68
2023/01/29 08:49:44;;;;;;;7.85;7.25;;;;;;;1.39;72.07;95271.84;5100306;28;20180;-69
2023/01/29 08:52:11;;;;;;;8.55;7.85;;;;;;;1.40;72.58;95268.84;5118288;28;20265;-69
2023/01/29 08:54:37;;;;;;;8.13;7.50;;;;;;;1.44;71.78;95279.94;5100496;28;20204;-69
2023/01/29 08:57:04;;;;;;;7.72;7.13;;;;;;;1.43;72.59;95278.31;5100387;28;20203;-69
2023/01/29 08:59:31;;;;;;;7.80;7.20;;;;;;;1.56;72.39;95293.94;5118058;27;20247;-69
2023/01/29 09:01:59;;;;;;;7.90;7.30;;;;;;;1.63;72.13;95290.84;5118163;28;20184;-68
2023/01/29 09:04:26;;;;;;;9.10;8.30;;;;;;;1.61;71.76;95290.34;5117829;28;20176;-68
2023/01/29 09:06:52;;;;;;;8.43;7.78;;;;;;;1.58;71.90;95291.72;5100087;28;20195;-67
2023/01/29 09:09:19;;;;;;;8.13;7.53;;;;;;;1.59;71.80;95287.09;5117816;28;20188;-67
2023/01/29 09:11:46;;;;;;;8.15;7.55;;;;;;;1.57;71.85;95294.75;5117738;28;20192;-67
2023/01/29 09:14:13;;;;;;;7.63;7.13;;;;;;;1.54;71.63;95298.03;5117429;28;20521;-68
2023/01/29 09:16:40;;;;;;;8.40;7.80;;;;;;;1.53;71.63;95288.28;5117927;28;20252;-68
2023/01/29 09:19:08;;;;;;;8.90;8.20;;;;;;;1.56;71.53;95290.41;5099926;28;20199;-68
2023/01/29 09:21:35;;;;;;;8.95;8.30;;;;;;;1.55;71.83;95291.50;5117701;28;20191;-69
2023/01/29 09:24:01;;;;;;;9.73;8.93;;;;;;;1.53;71.83;95288.28;5099790;28;20191;-68
2023/01/29 09:26:28;;;;;;;8.60;8.00;;;;;;;1.49;71.39;95288.06;5099998;28;20203;-69
2023/01/29 09:28:55;;;;;;;11.90;10.93;;;;;;;1.53;72.09;95288.28;5099517;28;20198;-69
2023/01/29 09:31:22;;;;;;;10.73;9.85;;;;;;;1.59;71.54;95287.91;5117410;28;20207;-68
2023/01/29 09:33:49;;;;;;;8.13;7.53;;;;;;;1.63;71.43;95282.69;5117252;28;20684;-69
2023/01/29 09:36:17;;;;;;;8.30;7.70;;;;;;;1.61;70.94;95279.47;5099401;28;20203;-68
2023/01/29 09:38:44;;;;;;;7.93;7.25;;;;;;;1.57;71.19;95281.97;5099479;28;20210;-70
2023/01/29 09:41:24;;;;;;;7.90;7.30;;;;;;;1.58;71.58;95269.97;5099388;28;20249;-71
2023/01/29 09:43:53;;;;;;;8.73;8.02;;;;;;;1.60;70.94;95275.16;5099234;28;20199;-68
2023/01/29 09:46:23;;;;;;;8.30;7.60;;;;;;;1.60;70.84;95272.44;5117435;28;20191;-68
2023/01/29 09:48:58;;;;;;;8.80;8.10;;;;;;;1.62;71.36;95272.94;5117008;28;20176;-68
2023/01/29 09:51:30;;;;;;;9.02;8.32;;;;;;;1.63;70.94;95264.50;5116931;28;20183;-69
2023/01/29 09:54:06;;;;;;;9.07;8.35;;;;;;;1.62;71.12;95273.72;5116798;28;20667;-68
2023/01/29 09:56:32;;;;;;;8.23;7.63;;;;;;;1.65;71.10;95269.63;5099041;28;20210;-69
2023/01/29 09:59:00;;;;;;;8.73;8.02;;;;;;;1.65;71.33;95275.06;5098459;28;20242;-68
2023/01/29 10:01:33;;;;;;;9.45;8.65;;;;;;;1.63;71.22;95278.09;5116702;28;20212;-68
2023/01/29 10:04:12;;;;;;;9.98;9.18;;;;;;;1.62;71.45;95268.28;5116914;28;20205;-68
2023/01/29 10:06:50;;;;;;;10.10;9.30;;;;;;;1.60;71.09;95272.44;5098516;28;20195;-68
2023/01/29 10:09:40;;;;;;;9.82;9.02;;;;;;;1.58;71.19;95258.31;5098789;28;20183;-68
2023/01/29 10:12:17;;;;;;;10.10;9.30;;;;;;;1.56;71.66;95263.22;5098920;28;20200;-68
2023/01/29 10:14:50;;;;;;;10.20;9.40;;;;;;;1.56;71.24;95261.31;5098783;28;20223;-69
2023/01/29 10:17:31;;;;;;;10.50;9.60;;;;;;;1.57;71.60;95260.22;5098777;28;20529;-68
2023/01/29 10:20:39;;;;;;;10.38;9.50;;;;;;;1.59;71.52;95254.47;5099176;28;20204;-69
2023/01/29 10:23:20;;;;;;;10.10;9.30;;;;;;;1.57;71.25;95249.34;5066678;28;20215;-69
2023/01/29 10:25:48;;;;;;;10.27;9.48;;;;;;;1.57;72.01;95253.97;5098472;28;20191;-70
2023/01/29 10:28:18;;;;;;;12.10;11.00;;;;;;;1.58;71.32;95253.66;5116499;28;20188;-69
2023/01/29 10:30:48;;;;;;;10.30;9.50;;;;;;;1.55;71.17;95253.44;5098206;28;20196;-67
2023/01/29 10:33:20;;;;;;;10.98;9.98;;;;;;;1.51;71.72;95250.50;5098383;28;20261;-67
2023/01/29 10:35:51;;;;;;;10.20;9.32;;;;;;;1.48;71.44;95242.13;5098188;28;20183;-68
2023/01/29 10:38:31;;;;;;;10.95;9.95;;;;;;;1.43;71.79;95238.38;5098694;28;20223;-67
2023/01/29 10:41:02;;;;;;;10.75;9.75;;;;;;;1.49;72.06;95241.00;5096627;28;20199;-67
2023/01/29 10:43:33;;;;;;;10.60;9.70;;;;;;;1.50;71.65;95242.66;5115987;28;20202;-67
2023/01/29 10:46:10;;;;;;;10.73;9.82;;;;;;;1.53;71.54;95250.22;5098313;28;20207;-67
2023/01/29 10:48:46;;;;;;;11.10;10.20;;;;;;;1.52;72.02;95246.66;5115923;28;20206;-67
2023/01/29 10:51:29;;;;;;;11.73;10.63;;;;;;;1.51;71.88;95236.91;5097786;28;20209;-67
2023/01/29 10:54:07;;;;;;;11.88;10.77;;;;;;;1.55;71.78;95232.50;5115780;28;20203;-67
2023/01/29 10:56:46;;;;;;;12.00;11.00;;;;;;;1.54;72.31;95235.53;5098212;28;20199;-67
2023/01/29 10:59:29;;;;;;;10.98;10.07;;;;;;;1.54;71.92;95235.53;5097943;28;20288;-67
2023/01/29 11:01:58;;;;;;;11.57;10.57;;;;;;;1.48;71.59;95223.91;5115828;28;20188;-67
2023/01/29 11:04:25;;;;;;;11.50;10.60;;;;;;;1.50;71.67;95229.06;5115848;28;20183;-67
2023/01/29 11:06:52;;;;;;;11.80;10.85;;;;;;;1.56;72.50;95227.88;5097936;28;20204;-67
2023/01/29 11:09:30;;;;;;;11.82;10.82;;;;;;;1.57;72.04;95219.44;5097292;28;20191;-67
2023/01/29 11:12:00;;;;;;;11.45;10.52;;;;;;;1.59;72.18;95222.66;5115038;28;20288;-67
2023/01/29 11:14:31;;;;;;;11.63;10.63;;;;;;;1.58;71.58;95222.97;5115428;28;20683;-67
2023/01/29 11:16:59;;;;;;;11.23;10.23;;;;;;;1.65;71.71;95223.41;5115732;28;20203;-67
2023/01/29 11:19:37;;;;;;;11.88;10.88;;;;;;;1.68;71.93;95220.91;5097597;28;20192;-67
2023/01/29 11:22:04;;;;;;;12.32;11.25;;;;;;;1.73;72.43;95219.22;5115562;28;20206;-68
2023/01/29 11:24:32;;;;;;;11.95;10.95;;;;;;;1.71;71.43;95205.09;5115364;28;20668;-67
2023/01/29 11:26:59;;;;;;;11.90;10.80;;;;;;;1.67;71.52;95213.88;5097803;28;20237;-67
2023/01/29 11:29:33;;;;;;;12.80;11.60;;;;;;;1.67;71.43;95211.16;5097431;28;20199;-67
2023/01/29 11:32:02;;;;;;;12.32;11.30;;;;;;;1.69;71.02;95206.22;5097644;28;20184;-67
2023/01/29 11:34:31;;;;;;;12.73;11.63;;;;;;;1.73;71.38;95198.28;5115402;28;20199;-67
2023/01/29 11:37:00;;;;;;;13.68;12.38;;;;;;;1.73;71.08;95198.28;5097687;28;20200;-67
2023/01/29 11:39:28;;;;;;;13.18;11.98;;;;;;;1.72;71.89;95191.22;5097649;28;20192;-67
2023/01/29 11:41:59;;;;;;;12.57;11.48;;;;;;;1.72;71.43;95193.94;5115370;28;20596;-67
2023/01/29 11:44:31;;;;;;;12.25;11.18;;;;;;;1.68;71.28;95185.56;5115491;28;20284;-67
2023/01/29 11:47:10;;;;;;;11.98;10.88;;;;;;;1.73;71.18;95186.59;5115516;28;20271;-67
2023/01/29 11:49:37;;;;;;;12.60;11.50;;;;;;;1.78;71.25;95187.34;5115204;28;20184;-67
2023/01/29 11:52:06;;;;;;;12.23;11.13;;;;;;;1.82;71.32;95174.75;5097817;28;20200;-67
2023/01/29 11:54:37;;;;;;;12.40;11.30;;;;;;;1.86;70.90;95173.06;5097468;28;20276;-67
2023/01/29 11:57:05;;;;;;;11.88;10.88;;;;;;;1.89;71.01;95183.38;5097723;28;20214;-67
2023/01/29 11:59:41;;;;;;;11.90;10.80;;;;;;;1.91;71.43;95177.63;5097448;28;20558;-67
2023/01/29 12:02:19;;;;;;;12.07;10.98;;;;;;;2.02;71.52;95179.06;5115071;28;20184;-67
2023/01/29 12:04:46;;;;;;;12.55;11.45;;;;;;;2.06;70.91;95174.66;5115219;28;20180;-68
2023/01/29 12:07:14;;;;;;;12.52;11.43;;;;;;;2.06;70.15;95169.22;5097097;28;20192;-67
2023/01/29 12:09:41;;;;;;;12.45;11.35;;;;;;;2.08;70.30;95168.94;5097167;28;20286;-67
2023/01/29 12:12:28;;;;;;;11.60;10.57;;;;;;;2.10;70.59;95170.22;5097784;28;20628;-67
2023/01/29 12:15:20;;;;;;;11.40;10.40;;;;;;;2.11;70.33;95166.44;5114916;28;20211;-67
2023/01/29 12:18:03;;;;;;;11.18;10.27;;;;;;;2.11;70.01;95169.16;5095117;28;20211;-67
2023/01/29 12:20:35;;;;;;;11.00;10.05;;;;;;;2.09;69.96;95173.25;5115043;28;20215;-67